Time;durP1;ratioP1;P1;durP2;ratioP2;P2;SDS_P1;SDS_P2;PMS_P1;PMS_P2;Temp;Humidity;BMP_temperature;BMP_pressure;BME280_temperature;BME280_humidity;BME280_pressure;Samples;Min_cycle;Max_cycle;Signal;HPM_P1;HPM_P2
2024/02/22 09:15:57;;;;;;;5.8;3.6;;;;;;;10.73;85.22656;94044.1;;;;
2024/02/22 09:16:57;;;;;;;5.8;3.6;;;;;;;10.73;85.22656;94044.1;;;;
2024/02/22 09:17:58;;;;;;;5.8;3.6;;;;;;;10.73;85.22656;94044.1;;;;
2024/02/22 09:18:58;;;;;;;5.8;3.6;;;;;;;10.73;85.22656;94044.1;;;;
2024/02/22 09:19:59;;;;;;;5.8;3.6;;;;;;;10.73;85.22656;94044.1;;;;
2024/02/22 09:21:00;;;;;;;5.8;3.6;;;;;;;10.73;85.22656;94044.1;;;;
2024/02/22 09:22:02;;;;;;;5.8;3.6;;;;;;;10.73;85.22656;94044.1;;;;
2024/02/22 09:23:04;;;;;;;5.8;3.6;;;;;;;10.73;85.22656;94044.1;;;;
2024/02/22 09:24:05;;;;;;;5.8;3.6;;;;;;;10.73;85.22656;94044.1;;;;
2024/02/22 09:25:06;;;;;;;5.8;3.6;;;;;;;10.73;85.22656;94044.1;;;;
2024/02/22 09:26:07;;;;;;;6.95;5;;;;;;;11.04;85.25488;94032.5;;;;
2024/02/22 09:27:07;;;;;;;6.95;5;;;;;;;11.04;85.25488;94032.5;;;;
2024/02/22 09:28:08;;;;;;;6.95;5;;;;;;;11.04;85.25488;94032.5;;;;
2024/02/22 09:29:12;;;;;;;6.95;5;;;;;;;11.04;85.25488;94032.5;;;;
2024/02/22 09:30:13;;;;;;;6.95;5;;;;;;;11.04;85.25488;94032.5;;;;
2024/02/22 09:31:15;;;;;;;6.95;5;;;;;;;11.04;85.25488;94032.5;;;;
2024/02/22 09:32:16;;;;;;;6.95;5;;;;;;;11.04;85.25488;94032.5;;;;
2024/02/22 09:33:16;;;;;;;6.95;5;;;;;;;11.04;85.25488;94032.5;;;;
2024/02/22 09:34:17;;;;;;;6.95;5;;;;;;;11.04;85.25488;94032.5;;;;
2024/02/22 09:35:17;;;;;;;6.95;5;;;;;;;11.04;85.25488;94032.5;;;;
2024/02/22 09:36:18;;;;;;;6.95;5;;;;;;;11.04;85.25488;94032.5;;;;
2024/02/22 09:37:19;;;;;;;7.55;4.199999;;;;;;;11.11;84.92773;94027.7;;;;
2024/02/22 09:38:20;;;;;;;7.55;4.199999;;;;;;;11.11;84.92773;94027.7;;;;
2024/02/22 09:39:20;;;;;;;7.55;4.199999;;;;;;;11.11;84.92773;94027.7;;;;
2024/02/22 09:40:21;;;;;;;7.55;4.199999;;;;;;;11.11;84.92773;94027.7;;;;
2024/02/22 09:41:22;;;;;;;7.55;4.199999;;;;;;;11.11;84.92773;94027.7;;;;
2024/02/22 09:42:26;;;;;;;7.55;4.199999;;;;;;;11.11;84.92773;94027.7;;;;
2024/02/22 09:43:27;;;;;;;7.55;4.199999;;;;;;;11.11;84.92773;94027.7;;;;
2024/02/22 09:44:30;;;;;;;7.55;4.199999;;;;;;;11.11;84.92773;94027.7;;;;
2024/02/22 09:45:31;;;;;;;7.55;4.199999;;;;;;;11.11;84.92773;94027.7;;;;
2024/02/22 09:46:32;;;;;;;7.55;4.199999;;;;;;;11.11;84.92773;94027.7;;;;
2024/02/22 09:47:33;;;;;;;5.299999;4.55;;;;;;;11.2;84.94434;94016.17;;;;
2024/02/22 09:48:33;;;;;;;5.299999;4.55;;;;;;;11.2;84.94434;94016.17;;;;
2024/02/22 09:49:34;;;;;;;5.299999;4.55;;;;;;;11.2;84.94434;94016.17;;;;
2024/02/22 09:50:36;;;;;;;5.299999;4.55;;;;;;;11.2;84.94434;94016.17;;;;
2024/02/22 09:51:36;;;;;;;5.299999;4.55;;;;;;;11.2;84.94434;94016.17;;;;
2024/02/22 09:52:37;;;;;;;5.299999;4.55;;;;;;;11.2;84.94434;94016.17;;;;
2024/02/22 09:53:38;;;;;;;5.299999;4.55;;;;;;;11.2;84.94434;94016.17;;;;
2024/02/22 09:54:38;;;;;;;5.299999;4.55;;;;;;;11.2;84.94434;94016.17;;;;
2024/02/22 09:55:39;;;;;;;5.299999;4.55;;;;;;;11.2;84.94434;94016.17;;;;
2024/02/22 09:56:40;;;;;;;5.299999;4.55;;;;;;;11.2;84.94434;94016.17;;;;
2024/02/22 09:57:43;;;;;;;5.299999;4.55;;;;;;;11.2;84.94434;94016.17;;;;
2024/02/22 09:58:43;;;;;;;6;4.5;;;;;;;11.31;85.23242;94011.27;;;;
2024/02/22 09:59:46;;;;;;;6;4.5;;;;;;;11.31;85.23242;94011.27;;;;
2024/02/22 10:00:50;;;;;;;6;4.5;;;;;;;11.31;85.23242;94011.27;;;;
2024/02/22 10:01:51;;;;;;;6;4.5;;;;;;;11.31;85.23242;94011.27;;;;
2024/02/22 10:02:52;;;;;;;6;4.5;;;;;;;11.31;85.23242;94011.27;;;;
2024/02/22 10:03:52;;;;;;;6;4.5;;;;;;;11.31;85.23242;94011.27;;;;
2024/02/22 10:04:53;;;;;;;6;4.5;;;;;;;11.31;85.23242;94011.27;;;;
2024/02/22 10:05:54;;;;;;;6;4.5;;;;;;;11.31;85.23242;94011.27;;;;
2024/02/22 10:06:55;;;;;;;6;4.5;;;;;;;11.31;85.23242;94011.27;;;;
2024/02/22 10:07:59;;;;;;;6;4.5;;;;;;;11.31;85.23242;94011.27;;;;
2024/02/22 10:09:08;;;;;;;7.45;4.5;;;;;;;11.4;84.93945;94000.51;;;;
2024/02/22 10:10:09;;;;;;;7.45;4.5;;;;;;;11.4;84.93945;94000.51;;;;
2024/02/22 10:11:09;;;;;;;7.45;4.5;;;;;;;11.4;84.93945;94000.51;;;;
2024/02/22 10:12:10;;;;;;;7.45;4.5;;;;;;;11.4;84.93945;94000.51;;;;
2024/02/22 10:13:21;;;;;;;7.45;4.5;;;;;;;11.4;84.93945;94000.51;;;;
2024/02/22 10:14:22;;;;;;;7.45;4.5;;;;;;;11.4;84.93945;94000.51;;;;
2024/02/22 10:15:27;;;;;;;7.45;4.5;;;;;;;11.4;84.93945;94000.51;;;;
2024/02/22 10:16:27;;;;;;;7.45;4.5;;;;;;;11.4;84.93945;94000.51;;;;
2024/02/22 10:17:29;;;;;;;7.45;4.5;;;;;;;11.4;84.93945;94000.51;;;;
2024/02/22 10:18:29;;;;;;;7.45;4.5;;;;;;;11.4;84.93945;94000.51;;;;
2024/02/22 10:19:30;;;;;;;7.45;4.5;;;;;;;11.4;84.93945;94000.51;;;;
2024/02/22 10:20:32;;;;;;;7.45;4.5;;;;;;;11.4;84.93945;94000.51;;;;
2024/02/22 10:21:33;;;;;;;7.45;4.5;;;;;;;11.4;84.93945;94000.51;;;;
2024/02/22 10:22:34;;;;;;;7.45;4.5;;;;;;;11.4;84.93945;94000.51;;;;
2024/02/22 10:23:34;;;;;;;7.45;4.5;;;;;;;11.4;84.93945;94000.51;;;;
2024/02/22 10:24:34;;;;;;;7.45;4.5;;;;;;;11.4;84.93945;94000.51;;;;
2024/02/22 10:25:35;;;;;;;7.45;4.5;;;;;;;11.4;84.93945;94000.51;;;;
2024/02/22 10:26:36;;;;;;;7.45;4.5;;;;;;;11.4;84.93945;94000.51;;;;
2024/02/22 10:27:36;;;;;;;7.45;4.5;;;;;;;11.4;84.93945;94000.51;;;;
2024/02/22 10:28:39;;;;;;;7.45;4.5;;;;;;;11.4;84.93945;94000.51;;;;
2024/02/22 10:29:39;;;;;;;7.45;4.5;;;;;;;11.4;84.93945;94000.51;;;;
2024/02/22 10:30:40;;;;;;;5.85;5;;;;;;;11.96;84.60547;93966.16;;;;
2024/02/22 10:31:40;;;;;;;5.85;5;;;;;;;11.96;84.60547;93966.16;;;;
2024/02/22 10:32:45;;;;;;;5.85;5;;;;;;;11.96;84.60547;93966.16;;;;
2024/02/22 10:33:47;;;;;;;5.85;5;;;;;;;11.96;84.60547;93966.16;;;;
2024/02/22 10:34:49;;;;;;;5.85;5;;;;;;;11.96;84.60547;93966.16;;;;
2024/02/22 10:35:50;;;;;;;5.85;5;;;;;;;11.96;84.60547;93966.16;;;;
2024/02/22 10:36:52;;;;;;;5.85;5;;;;;;;11.96;84.60547;93966.16;;;;
2024/02/22 10:37:55;;;;;;;5.85;5;;;;;;;11.96;84.60547;93966.16;;;;
2024/02/22 10:38:56;;;;;;;5.85;5;;;;;;;11.96;84.60547;93966.16;;;;
2024/02/22 10:39:57;;;;;;;5.85;5;;;;;;;11.96;84.60547;93966.16;;;;
2024/02/22 10:41:00;;;;;;;5.799999;5.15;;;;;;;12;84.16211;93952.15;;;;
2024/02/22 10:42:01;;;;;;;5.799999;5.15;;;;;;;12;84.16211;93952.15;;;;
2024/02/22 10:43:03;;;;;;;5.799999;5.15;;;;;;;12;84.16211;93952.15;;;;
2024/02/22 10:44:05;;;;;;;5.799999;5.15;;;;;;;12;84.16211;93952.15;;;;
2024/02/22 10:45:07;;;;;;;5.799999;5.15;;;;;;;12;84.16211;93952.15;;;;
2024/02/22 10:46:07;;;;;;;5.799999;5.15;;;;;;;12;84.16211;93952.15;;;;
2024/02/22 10:47:09;;;;;;;5.799999;5.15;;;;;;;12;84.16211;93952.15;;;;
2024/02/22 10:48:10;;;;;;;5.799999;5.15;;;;;;;12;84.16211;93952.15;;;;
2024/02/22 10:49:12;;;;;;;5.799999;5.15;;;;;;;12;84.16211;93952.15;;;;
2024/02/22 10:50:14;;;;;;;5.799999;5.15;;;;;;;12;84.16211;93952.15;;;;
2024/02/22 10:51:18;;;;;;;5.799999;5.15;;;;;;;12;84.16211;93952.15;;;;
2024/02/22 10:52:19;;;;;;;8;5.55;;;;;;;11.87;84.45996;93934.95;;;;
2024/02/22 10:53:21;;;;;;;8;5.55;;;;;;;11.87;84.45996;93934.95;;;;
2024/02/22 10:54:22;;;;;;;8;5.55;;;;;;;11.87;84.45996;93934.95;;;;
2024/02/22 10:55:25;;;;;;;8;5.55;;;;;;;11.87;84.45996;93934.95;;;;
2024/02/22 10:56:28;;;;;;;8;5.55;;;;;;;11.87;84.45996;93934.95;;;;
2024/02/22 10:57:31;;;;;;;8;5.55;;;;;;;11.87;84.45996;93934.95;;;;
2024/02/22 10:58:33;;;;;;;8;5.55;;;;;;;11.87;84.45996;93934.95;;;;
2024/02/22 10:59:38;;;;;;;8;5.55;;;;;;;11.87;84.45996;93934.95;;;;
2024/02/22 11:00:40;;;;;;;8;5.55;;;;;;;11.87;84.45996;93934.95;;;;
2024/02/22 11:01:42;;;;;;;8;5.55;;;;;;;11.87;84.45996;93934.95;;;;
2024/02/22 11:02:44;;;;;;;8.5;5.949999;;;;;;;12.13;83.42285;93914.64;;;;
2024/02/22 11:03:45;;;;;;;8.5;5.949999;;;;;;;12.13;83.42285;93914.64;;;;
2024/02/22 11:04:46;;;;;;;8.5;5.949999;;;;;;;12.13;83.42285;93914.64;;;;
2024/02/22 11:05:47;;;;;;;8.5;5.949999;;;;;;;12.13;83.42285;93914.64;;;;
2024/02/22 11:06:47;;;;;;;8.5;5.949999;;;;;;;12.13;83.42285;93914.64;;;;
2024/02/22 11:07:49;;;;;;;8.5;5.949999;;;;;;;12.13;83.42285;93914.64;;;;
2024/02/22 11:08:50;;;;;;;8.5;5.949999;;;;;;;12.13;83.42285;93914.64;;;;
2024/02/22 11:09:54;;;;;;;8.5;5.949999;;;;;;;12.13;83.42285;93914.64;;;;
2024/02/22 11:11:06;;;;;;;8.5;5.949999;;;;;;;12.13;83.42285;93914.64;;;;
2024/02/22 11:12:07;;;;;;;8.5;5.949999;;;;;;;12.13;83.42285;93914.64;;;;
2024/02/22 11:13:07;;;;;;;5.650001;5.049999;;;;;;;12.93;85.28027;93874.91;;;;
2024/02/22 11:14:13;;;;;;;5.650001;5.049999;;;;;;;12.93;85.28027;93874.91;;;;
2024/02/22 11:15:26;;;;;;;5.650001;5.049999;;;;;;;12.93;85.28027;93874.91;;;;
2024/02/22 11:16:30;;;;;;;5.650001;5.049999;;;;;;;12.93;85.28027;93874.91;;;;
2024/02/22 11:17:32;;;;;;;5.650001;5.049999;;;;;;;12.93;85.28027;93874.91;;;;
2024/02/22 11:18:33;;;;;;;5.650001;5.049999;;;;;;;12.93;85.28027;93874.91;;;;
2024/02/22 11:19:33;;;;;;;5.650001;5.049999;;;;;;;12.93;85.28027;93874.91;;;;
2024/02/22 11:20:34;;;;;;;5.650001;5.049999;;;;;;;12.93;85.28027;93874.91;;;;
2024/02/22 11:21:36;;;;;;;5.650001;5.049999;;;;;;;12.93;85.28027;93874.91;;;;
2024/02/22 11:22:37;;;;;;;5.650001;5.049999;;;;;;;12.93;85.28027;93874.91;;;;
2024/02/22 11:23:37;;;;;;;5.650001;5.049999;;;;;;;12.93;85.28027;93874.91;;;;
2024/02/22 11:24:39;;;;;;;5.299999;4.65;;;;;;;13.54;82.8252;93841.85;;;;
2024/02/22 11:25:40;;;;;;;5.299999;4.65;;;;;;;13.54;82.8252;93841.85;;;;
2024/02/22 11:26:40;;;;;;;5.299999;4.65;;;;;;;13.54;82.8252;93841.85;;;;
2024/02/22 11:27:41;;;;;;;5.299999;4.65;;;;;;;13.54;82.8252;93841.85;;;;
2024/02/22 11:28:41;;;;;;;5.299999;4.65;;;;;;;13.54;82.8252;93841.85;;;;
2024/02/22 11:29:51;;;;;;;5.299999;4.65;;;;;;;13.54;82.8252;93841.85;;;;
2024/02/22 11:30:51;;;;;;;5.299999;4.65;;;;;;;13.54;82.8252;93841.85;;;;
2024/02/22 11:31:52;;;;;;;5.299999;4.65;;;;;;;13.54;82.8252;93841.85;;;;
2024/02/22 11:32:52;;;;;;;5.299999;4.65;;;;;;;13.54;82.8252;93841.85;;;;
2024/02/22 11:33:53;;;;;;;5.299999;4.65;;;;;;;13.54;82.8252;93841.85;;;;
2024/02/22 11:34:56;;;;;;;4.45;4.05;;;;;;;14.17;80.83105;93805.02;;;;
2024/02/22 11:35:57;;;;;;;4.45;4.05;;;;;;;14.17;80.83105;93805.02;;;;
2024/02/22 11:36:58;;;;;;;4.45;4.05;;;;;;;14.17;80.83105;93805.02;;;;
2024/02/22 11:38:09;;;;;;;4.45;4.05;;;;;;;14.17;80.83105;93805.02;;;;
2024/02/22 11:39:10;;;;;;;4.45;4.05;;;;;;;14.17;80.83105;93805.02;;;;
2024/02/22 11:40:10;;;;;;;4.45;4.05;;;;;;;14.17;80.83105;93805.02;;;;
2024/02/22 11:41:18;;;;;;;4.45;4.05;;;;;;;14.17;80.83105;93805.02;;;;
2024/02/22 11:42:18;;;;;;;4.45;4.05;;;;;;;14.17;80.83105;93805.02;;;;
2024/02/22 11:43:19;;;;;;;4.45;4.05;;;;;;;14.17;80.83105;93805.02;;;;
2024/02/22 11:44:24;;;;;;;4.45;4.05;;;;;;;14.17;80.83105;93805.02;;;;
2024/02/22 11:45:24;;;;;;;4.3;3.9;;;;;;;14.63;79.80078;93769.64;;;;
2024/02/22 11:46:25;;;;;;;4.3;3.9;;;;;;;14.63;79.80078;93769.64;;;;
2024/02/22 11:47:26;;;;;;;4.3;3.9;;;;;;;14.63;79.80078;93769.64;;;;
2024/02/22 11:48:27;;;;;;;4.3;3.9;;;;;;;14.63;79.80078;93769.64;;;;
2024/02/22 11:49:29;;;;;;;4.3;3.9;;;;;;;14.63;79.80078;93769.64;;;;
2024/02/22 11:50:30;;;;;;;4.3;3.9;;;;;;;14.63;79.80078;93769.64;;;;
2024/02/22 11:51:31;;;;;;;4.3;3.9;;;;;;;14.63;79.80078;93769.64;;;;
2024/02/22 11:52:32;;;;;;;4.3;3.9;;;;;;;14.63;79.80078;93769.64;;;;
2024/02/22 11:53:32;;;;;;;4.3;3.9;;;;;;;14.63;79.80078;93769.64;;;;
2024/02/22 11:54:32;;;;;;;4.3;3.9;;;;;;;14.63;79.80078;93769.64;;;;
2024/02/22 11:55:34;;;;;;;4.3;3.9;;;;;;;14.63;79.80078;93769.64;;;;
2024/02/22 11:56:35;;;;;;;6.349999;4.15;;;;;;;14.48;80.68555;93741.25;;;;
2024/02/22 11:57:36;;;;;;;6.349999;4.15;;;;;;;14.48;80.68555;93741.25;;;;
2024/02/22 11:58:39;;;;;;;6.349999;4.15;;;;;;;14.48;80.68555;93741.25;;;;
2024/02/22 11:59:39;;;;;;;6.349999;4.15;;;;;;;14.48;80.68555;93741.25;;;;
2024/02/22 12:00:40;;;;;;;6.349999;4.15;;;;;;;14.48;80.68555;93741.25;;;;
2024/02/22 12:01:41;;;;;;;6.349999;4.15;;;;;;;14.48;80.68555;93741.25;;;;
2024/02/22 12:02:43;;;;;;;6.349999;4.15;;;;;;;14.48;80.68555;93741.25;;;;
2024/02/22 12:03:44;;;;;;;6.349999;4.15;;;;;;;14.48;80.68555;93741.25;;;;
2024/02/22 12:04:45;;;;;;;6.349999;4.15;;;;;;;14.48;80.68555;93741.25;;;;
2024/02/22 12:05:46;;;;;;;6.349999;4.15;;;;;;;14.48;80.68555;93741.25;;;;
2024/02/22 12:06:47;;;;;;;6.349999;4.15;;;;;;;14.48;80.68555;93741.25;;;;
2024/02/22 12:07:48;;;;;;;3.6;3.3;;;;;;;14.52;82.08984;93720.64;;;;
2024/02/22 12:08:50;;;;;;;3.6;3.3;;;;;;;14.52;82.08984;93720.64;;;;
2024/02/22 12:09:51;;;;;;;3.6;3.3;;;;;;;14.52;82.08984;93720.64;;;;
2024/02/22 12:10:53;;;;;;;3.6;3.3;;;;;;;14.52;82.08984;93720.64;;;;
2024/02/22 12:11:55;;;;;;;3.6;3.3;;;;;;;14.52;82.08984;93720.64;;;;
2024/02/22 12:12:56;;;;;;;3.6;3.3;;;;;;;14.52;82.08984;93720.64;;;;
2024/02/22 12:13:57;;;;;;;3.6;3.3;;;;;;;14.52;82.08984;93720.64;;;;
2024/02/22 12:14:59;;;;;;;3.6;3.3;;;;;;;14.52;82.08984;93720.64;;;;
2024/02/22 12:16:01;;;;;;;3.6;3.3;;;;;;;14.52;82.08984;93720.64;;;;
2024/02/22 12:17:05;;;;;;;3.6;3.3;;;;;;;14.52;82.08984;93720.64;;;;
2024/02/22 12:18:07;;;;;;;4.75;4.2;;;;;;;14.5;82.06445;93696.18;;;;
2024/02/22 12:19:07;;;;;;;4.75;4.2;;;;;;;14.5;82.06445;93696.18;;;;
2024/02/22 12:20:12;;;;;;;4.75;4.2;;;;;;;14.5;82.06445;93696.18;;;;
2024/02/22 12:21:13;;;;;;;4.75;4.2;;;;;;;14.5;82.06445;93696.18;;;;
2024/02/22 12:22:14;;;;;;;4.75;4.2;;;;;;;14.5;82.06445;93696.18;;;;
2024/02/22 12:23:15;;;;;;;4.75;4.2;;;;;;;14.5;82.06445;93696.18;;;;
2024/02/22 12:24:17;;;;;;;4.75;4.2;;;;;;;14.5;82.06445;93696.18;;;;
2024/02/22 12:25:18;;;;;;;4.75;4.2;;;;;;;14.5;82.06445;93696.18;;;;
2024/02/22 12:26:19;;;;;;;4.75;4.2;;;;;;;14.5;82.06445;93696.18;;;;
2024/02/22 12:27:19;;;;;;;4.75;4.2;;;;;;;14.5;82.06445;93696.18;;;;
2024/02/22 12:28:20;;;;;;;4.9;4.05;;;;;;;14.63;82.5752;93668.17;;;;
2024/02/22 12:29:21;;;;;;;4.9;4.05;;;;;;;14.63;82.5752;93668.17;;;;
2024/02/22 12:30:22;;;;;;;4.9;4.05;;;;;;;14.63;82.5752;93668.17;;;;
2024/02/22 12:31:23;;;;;;;4.9;4.05;;;;;;;14.63;82.5752;93668.17;;;;
2024/02/22 12:32:25;;;;;;;4.9;4.05;;;;;;;14.63;82.5752;93668.17;;;;
2024/02/22 12:33:26;;;;;;;4.9;4.05;;;;;;;14.63;82.5752;93668.17;;;;
2024/02/22 12:34:26;;;;;;;4.9;4.05;;;;;;;14.63;82.5752;93668.17;;;;
2024/02/22 12:35:27;;;;;;;4.9;4.05;;;;;;;14.63;82.5752;93668.17;;;;
2024/02/22 12:36:28;;;;;;;4.9;4.05;;;;;;;14.63;82.5752;93668.17;;;;
2024/02/22 12:37:28;;;;;;;4.9;4.05;;;;;;;14.63;82.5752;93668.17;;;;
2024/02/22 12:38:28;;;;;;;4.9;4.05;;;;;;;14.63;82.5752;93668.17;;;;
2024/02/22 12:39:29;;;;;;;4.9;4.05;;;;;;;14.63;82.5752;93668.17;;;;
2024/02/22 12:40:29;;;;;;;4.9;4.05;;;;;;;14.63;82.5752;93668.17;;;;
2024/02/22 12:41:30;;;;;;;4.9;4.05;;;;;;;14.63;82.5752;93668.17;;;;
2024/02/22 12:42:31;;;;;;;4.9;4.05;;;;;;;14.63;82.5752;93668.17;;;;
2024/02/22 12:43:31;;;;;;;4.9;4.05;;;;;;;14.63;82.5752;93668.17;;;;
2024/02/22 12:44:31;;;;;;;4.9;4.05;;;;;;;14.63;82.5752;93668.17;;;;
2024/02/22 12:45:33;;;;;;;4.9;4.05;;;;;;;14.63;82.5752;93668.17;;;;
2024/02/22 12:46:36;;;;;;;4.9;4.05;;;;;;;14.63;82.5752;93668.17;;;;
2024/02/22 12:47:36;;;;;;;4.9;4.05;;;;;;;14.63;82.5752;93668.17;;;;
2024/02/22 12:48:37;;;;;;;4.9;4.05;;;;;;;14.63;82.5752;93668.17;;;;
2024/02/22 12:49:38;;;;;;;4.9;4.05;;;;;;;14.63;82.5752;93668.17;;;;
2024/02/22 12:50:39;;;;;;;4.8;3.55;;;;;;;15.76;82.51563;93605.8;;;;
2024/02/22 12:51:39;;;;;;;4.8;3.55;;;;;;;15.76;82.51563;93605.8;;;;
2024/02/22 12:52:40;;;;;;;4.8;3.55;;;;;;;15.76;82.51563;93605.8;;;;
2024/02/22 12:53:41;;;;;;;4.8;3.55;;;;;;;15.76;82.51563;93605.8;;;;
2024/02/22 12:54:41;;;;;;;4.8;3.55;;;;;;;15.76;82.51563;93605.8;;;;
2024/02/22 12:55:42;;;;;;;4.8;3.55;;;;;;;15.76;82.51563;93605.8;;;;
2024/02/22 12:56:43;;;;;;;4.8;3.55;;;;;;;15.76;82.51563;93605.8;;;;
2024/02/22 12:57:44;;;;;;;4.8;3.55;;;;;;;15.76;82.51563;93605.8;;;;
2024/02/22 12:58:44;;;;;;;4.8;3.55;;;;;;;15.76;82.51563;93605.8;;;;
2024/02/22 12:59:45;;;;;;;4.8;3.55;;;;;;;15.76;82.51563;93605.8;;;;
2024/02/22 13:00:46;;;;;;;5.050001;4.3;;;;;;;15.94;82.21191;93579.74;;;;
2024/02/22 13:01:47;;;;;;;5.050001;4.3;;;;;;;15.94;82.21191;93579.74;;;;
2024/02/22 13:02:48;;;;;;;5.050001;4.3;;;;;;;15.94;82.21191;93579.74;;;;
2024/02/22 13:03:48;;;;;;;5.050001;4.3;;;;;;;15.94;82.21191;93579.74;;;;
2024/02/22 13:04:50;;;;;;;5.050001;4.3;;;;;;;15.94;82.21191;93579.74;;;;
2024/02/22 13:05:50;;;;;;;5.050001;4.3;;;;;;;15.94;82.21191;93579.74;;;;
2024/02/22 13:06:51;;;;;;;5.050001;4.3;;;;;;;15.94;82.21191;93579.74;;;;
2024/02/22 13:07:51;;;;;;;5.050001;4.3;;;;;;;15.94;82.21191;93579.74;;;;
2024/02/22 13:08:52;;;;;;;5.050001;4.3;;;;;;;15.94;82.21191;93579.74;;;;
2024/02/22 13:09:52;;;;;;;5.050001;4.3;;;;;;;15.94;82.21191;93579.74;;;;
2024/02/22 13:10:53;;;;;;;5.050001;4.3;;;;;;;15.94;82.21191;93579.74;;;;
2024/02/22 13:11:53;;;;;;;4.85;3.9;;;;;;;16.13;82.84473;93549.48;;;;
2024/02/22 13:12:54;;;;;;;4.85;3.9;;;;;;;16.13;82.84473;93549.48;;;;
2024/02/22 13:13:54;;;;;;;4.85;3.9;;;;;;;16.13;82.84473;93549.48;;;;
2024/02/22 13:14:55;;;;;;;4.85;3.9;;;;;;;16.13;82.84473;93549.48;;;;
2024/02/22 13:15:56;;;;;;;4.85;3.9;;;;;;;16.13;82.84473;93549.48;;;;
2024/02/22 13:16:56;;;;;;;4.85;3.9;;;;;;;16.13;82.84473;93549.48;;;;
2024/02/22 13:17:57;;;;;;;4.85;3.9;;;;;;;16.13;82.84473;93549.48;;;;
2024/02/22 13:18:57;;;;;;;4.85;3.9;;;;;;;16.13;82.84473;93549.48;;;;
2024/02/22 13:19:58;;;;;;;4.85;3.9;;;;;;;16.13;82.84473;93549.48;;;;
2024/02/22 13:20:58;;;;;;;4.85;3.9;;;;;;;16.13;82.84473;93549.48;;;;
2024/02/22 13:21:59;;;;;;;4.05;2.7;;;;;;;16.11;81.83008;93512.98;;;;
2024/02/22 13:23:00;;;;;;;4.05;2.7;;;;;;;16.11;81.83008;93512.98;;;;
2024/02/22 13:24:02;;;;;;;4.05;2.7;;;;;;;16.11;81.83008;93512.98;;;;
2024/02/22 13:25:03;;;;;;;4.05;2.7;;;;;;;16.11;81.83008;93512.98;;;;
2024/02/22 13:26:04;;;;;;;4.05;2.7;;;;;;;16.11;81.83008;93512.98;;;;
2024/02/22 13:27:06;;;;;;;4.05;2.7;;;;;;;16.11;81.83008;93512.98;;;;
2024/02/22 13:28:06;;;;;;;4.05;2.7;;;;;;;16.11;81.83008;93512.98;;;;
2024/02/22 13:29:07;;;;;;;4.05;2.7;;;;;;;16.11;81.83008;93512.98;;;;
2024/02/22 13:30:10;;;;;;;4.05;2.7;;;;;;;16.11;81.83008;93512.98;;;;
2024/02/22 13:31:43;;;;;;;4.05;2.7;;;;;;;16.11;81.83008;93512.98;;;;
2024/02/22 13:32:44;;;;;;;3.400001;2.6;;;;;;;15.76;82.05762;93483.37;;;;
2024/02/22 13:33:46;;;;;;;3.400001;2.6;;;;;;;15.76;82.05762;93483.37;;;;
2024/02/22 13:34:47;;;;;;;3.400001;2.6;;;;;;;15.76;82.05762;93483.37;;;;
2024/02/22 13:35:47;;;;;;;3.400001;2.6;;;;;;;15.76;82.05762;93483.37;;;;
2024/02/22 13:36:48;;;;;;;3.400001;2.6;;;;;;;15.76;82.05762;93483.37;;;;
2024/02/22 13:37:51;;;;;;;3.400001;2.6;;;;;;;15.76;82.05762;93483.37;;;;
2024/02/22 13:38:51;;;;;;;3.400001;2.6;;;;;;;15.76;82.05762;93483.37;;;;
2024/02/22 13:39:52;;;;;;;3.400001;2.6;;;;;;;15.76;82.05762;93483.37;;;;
2024/02/22 13:40:53;;;;;;;3.400001;2.6;;;;;;;15.76;82.05762;93483.37;;;;
2024/02/22 13:41:54;;;;;;;3.400001;2.6;;;;;;;15.76;82.05762;93483.37;;;;
2024/02/22 13:42:55;;;;;;;3.400001;2.6;;;;;;;15.76;82.05762;93483.37;;;;
2024/02/22 13:43:56;;;;;;;3.2;2.85;;;;;;;15.81;81.5459;93466.39;;;;
2024/02/22 13:44:56;;;;;;;3.2;2.85;;;;;;;15.81;81.5459;93466.39;;;;
2024/02/22 13:45:56;;;;;;;3.2;2.85;;;;;;;15.81;81.5459;93466.39;;;;
2024/02/22 13:46:57;;;;;;;3.2;2.85;;;;;;;15.81;81.5459;93466.39;;;;
2024/02/22 13:47:58;;;;;;;3.2;2.85;;;;;;;15.81;81.5459;93466.39;;;;
2024/02/22 13:48:58;;;;;;;3.2;2.85;;;;;;;15.81;81.5459;93466.39;;;;
2024/02/22 13:49:58;;;;;;;3.2;2.85;;;;;;;15.81;81.5459;93466.39;;;;
2024/02/22 13:50:59;;;;;;;3.2;2.85;;;;;;;15.81;81.5459;93466.39;;;;
2024/02/22 13:52:00;;;;;;;3.2;2.85;;;;;;;15.81;81.5459;93466.39;;;;
2024/02/22 13:53:00;;;;;;;3.2;2.85;;;;;;;15.81;81.5459;93466.39;;;;
2024/02/22 13:54:00;;;;;;;2.7;2.5;;;;;;;15.42;83.38379;93456.53;;;;
2024/02/22 13:55:02;;;;;;;2.7;2.5;;;;;;;15.42;83.38379;93456.53;;;;
2024/02/22 13:56:03;;;;;;;2.7;2.5;;;;;;;15.42;83.38379;93456.53;;;;
2024/02/22 13:57:04;;;;;;;2.7;2.5;;;;;;;15.42;83.38379;93456.53;;;;
2024/02/22 13:58:05;;;;;;;2.7;2.5;;;;;;;15.42;83.38379;93456.53;;;;
2024/02/22 13:59:05;;;;;;;2.7;2.5;;;;;;;15.42;83.38379;93456.53;;;;
2024/02/22 14:00:06;;;;;;;2.7;2.5;;;;;;;15.42;83.38379;93456.53;;;;
2024/02/22 14:01:08;;;;;;;2.7;2.5;;;;;;;15.42;83.38379;93456.53;;;;
2024/02/22 14:02:08;;;;;;;2.7;2.5;;;;;;;15.42;83.38379;93456.53;;;;
2024/02/22 14:03:09;;;;;;;2.7;2.5;;;;;;;15.42;83.38379;93456.53;;;;
2024/02/22 14:04:10;;;;;;;2.7;2.5;;;;;;;15.42;83.38379;93456.53;;;;
2024/02/22 14:05:10;;;;;;;2.85;2.55;;;;;;;15.29;83.06836;93426.05;;;;
2024/02/22 14:06:11;;;;;;;2.85;2.55;;;;;;;15.29;83.06836;93426.05;;;;
2024/02/22 14:07:12;;;;;;;2.85;2.55;;;;;;;15.29;83.06836;93426.05;;;;
2024/02/22 14:08:12;;;;;;;2.85;2.55;;;;;;;15.29;83.06836;93426.05;;;;
2024/02/22 14:09:15;;;;;;;2.85;2.55;;;;;;;15.29;83.06836;93426.05;;;;
2024/02/22 14:10:16;;;;;;;2.85;2.55;;;;;;;15.29;83.06836;93426.05;;;;
2024/02/22 14:11:16;;;;;;;2.85;2.55;;;;;;;15.29;83.06836;93426.05;;;;
2024/02/22 14:12:17;;;;;;;2.85;2.55;;;;;;;15.29;83.06836;93426.05;;;;
2024/02/22 14:13:21;;;;;;;2.85;2.55;;;;;;;15.29;83.06836;93426.05;;;;
2024/02/22 14:14:22;;;;;;;2.85;2.55;;;;;;;15.29;83.06836;93426.05;;;;
2024/02/22 14:15:22;;;;;;;2.85;2.55;;;;;;;15.29;83.06836;93426.05;;;;
2024/02/22 14:16:23;;;;;;;3;2.65;;;;;;;15.28;84.16016;93420.08;;;;
2024/02/22 14:17:26;;;;;;;3;2.65;;;;;;;15.28;84.16016;93420.08;;;;
2024/02/22 14:18:27;;;;;;;3;2.65;;;;;;;15.28;84.16016;93420.08;;;;
2024/02/22 14:19:27;;;;;;;3;2.65;;;;;;;15.28;84.16016;93420.08;;;;
2024/02/22 14:20:28;;;;;;;3;2.65;;;;;;;15.28;84.16016;93420.08;;;;
2024/02/22 14:21:28;;;;;;;3;2.65;;;;;;;15.28;84.16016;93420.08;;;;
2024/02/22 14:22:29;;;;;;;3;2.65;;;;;;;15.28;84.16016;93420.08;;;;
2024/02/22 14:23:29;;;;;;;3;2.65;;;;;;;15.28;84.16016;93420.08;;;;
2024/02/22 14:24:30;;;;;;;3;2.65;;;;;;;15.28;84.16016;93420.08;;;;
2024/02/22 14:25:31;;;;;;;3;2.65;;;;;;;15.28;84.16016;93420.08;;;;
2024/02/22 14:26:31;;;;;;;3.4;3.1;;;;;;;15.14;83.00586;93420.54;;;;
2024/02/22 14:27:35;;;;;;;3.4;3.1;;;;;;;15.14;83.00586;93420.54;;;;
2024/02/22 14:28:36;;;;;;;3.4;3.1;;;;;;;15.14;83.00586;93420.54;;;;
2024/02/22 14:29:37;;;;;;;3.4;3.1;;;;;;;15.14;83.00586;93420.54;;;;
2024/02/22 14:30:37;;;;;;;3.4;3.1;;;;;;;15.14;83.00586;93420.54;;;;
2024/02/22 14:31:38;;;;;;;3.4;3.1;;;;;;;15.14;83.00586;93420.54;;;;
2024/02/22 14:32:38;;;;;;;3.4;3.1;;;;;;;15.14;83.00586;93420.54;;;;
2024/02/22 14:33:39;;;;;;;3.4;3.1;;;;;;;15.14;83.00586;93420.54;;;;
2024/02/22 14:34:40;;;;;;;3.4;3.1;;;;;;;15.14;83.00586;93420.54;;;;
2024/02/22 14:35:40;;;;;;;3.4;3.1;;;;;;;15.14;83.00586;93420.54;;;;
2024/02/22 14:36:42;;;;;;;3.4;3.1;;;;;;;15.14;83.00586;93420.54;;;;
2024/02/22 14:37:43;;;;;;;0.6;0.6;;;;;;;15.16;81.02539;93398.8;;;;
2024/02/22 14:38:45;;;;;;;0.6;0.6;;;;;;;15.16;81.02539;93398.8;;;;
2024/02/22 14:39:45;;;;;;;0.6;0.6;;;;;;;15.16;81.02539;93398.8;;;;
2024/02/22 14:40:46;;;;;;;0.6;0.6;;;;;;;15.16;81.02539;93398.8;;;;
2024/02/22 14:41:46;;;;;;;0.6;0.6;;;;;;;15.16;81.02539;93398.8;;;;
2024/02/22 14:42:47;;;;;;;0.6;0.6;;;;;;;15.16;81.02539;93398.8;;;;
2024/02/22 14:43:51;;;;;;;0.6;0.6;;;;;;;15.16;81.02539;93398.8;;;;
2024/02/22 14:44:52;;;;;;;0.6;0.6;;;;;;;15.16;81.02539;93398.8;;;;
2024/02/22 14:45:52;;;;;;;0.6;0.6;;;;;;;15.16;81.02539;93398.8;;;;
2024/02/22 14:46:55;;;;;;;0.6;0.6;;;;;;;15.16;81.02539;93398.8;;;;
2024/02/22 14:47:56;;;;;;;0.6;0.6;;;;;;;14.87;81.26563;93387.45;;;;
2024/02/22 14:48:56;;;;;;;0.6;0.6;;;;;;;14.87;81.26563;93387.45;;;;
2024/02/22 14:49:57;;;;;;;0.6;0.6;;;;;;;14.87;81.26563;93387.45;;;;
2024/02/22 14:50:57;;;;;;;0.6;0.6;;;;;;;14.87;81.26563;93387.45;;;;
2024/02/22 14:51:57;;;;;;;0.6;0.6;;;;;;;14.87;81.26563;93387.45;;;;
2024/02/22 14:52:58;;;;;;;0.6;0.6;;;;;;;14.87;81.26563;93387.45;;;;
2024/02/22 14:53:59;;;;;;;0.6;0.6;;;;;;;14.87;81.26563;93387.45;;;;
2024/02/22 14:54:59;;;;;;;0.6;0.6;;;;;;;14.87;81.26563;93387.45;;;;
2024/02/22 14:55:59;;;;;;;0.6;0.6;;;;;;;14.87;81.26563;93387.45;;;;
2024/02/22 14:57:00;;;;;;;0.6;0.6;;;;;;;14.87;81.26563;93387.45;;;;
2024/02/22 14:58:00;;;;;;;0.6;0.6;;;;;;;14.87;81.26563;93387.45;;;;
2024/02/22 14:59:01;;;;;;;0.6;0.6;;;;;;;14.57;81.49219;93393.53;;;;
2024/02/22 15:00:03;;;;;;;0.6;0.6;;;;;;;14.57;81.49219;93393.53;;;;
2024/02/22 15:01:04;;;;;;;0.6;0.6;;;;;;;14.57;81.49219;93393.53;;;;
2024/02/22 15:02:04;;;;;;;0.6;0.6;;;;;;;14.57;81.49219;93393.53;;;;
2024/02/22 15:03:05;;;;;;;0.6;0.6;;;;;;;14.57;81.49219;93393.53;;;;
2024/02/22 15:04:06;;;;;;;0.6;0.6;;;;;;;14.57;81.49219;93393.53;;;;
2024/02/22 15:05:06;;;;;;;0.6;0.6;;;;;;;14.57;81.49219;93393.53;;;;